createdAt,value
2019-03-11T00:04:01.117Z,4.30
2019-03-11T00:09:06.782Z,4.20
2019-03-11T00:14:13.058Z,4.20
2019-03-11T00:19:17.789Z,4.20
2019-03-11T00:24:23.258Z,4.20
2019-03-11T00:29:27.898Z,4.30
2019-03-11T00:34:32.414Z,4.20
2019-03-11T00:39:37.075Z,4.10
2019-03-11T00:44:41.520Z,4.00
2019-03-11T00:49:46.252Z,4.00
2019-03-11T00:54:50.763Z,4.10
2019-03-11T00:59:55.429Z,4.10
2019-03-11T01:04:59.865Z,4.10
2019-03-11T01:10:06.479Z,4.10
2019-03-11T01:15:11.497Z,4.00
2019-03-11T01:20:15.931Z,3.90
2019-03-11T01:25:20.386Z,3.90
2019-03-11T01:30:25.106Z,3.70
2019-03-11T01:35:29.519Z,3.50
2019-03-11T01:40:33.976Z,3.40
2019-03-11T01:45:38.718Z,3.30
2019-03-11T01:50:43.153Z,3.20
2019-03-11T01:55:47.591Z,3.00
2019-03-11T02:00:51.999Z,3.10
2019-03-11T02:05:56.430Z,3.00
2019-03-11T02:11:01.199Z,2.90
2019-03-11T02:16:05.941Z,2.80
2019-03-11T02:21:10.375Z,2.80
2019-03-11T02:26:14.815Z,2.70
2019-03-11T02:31:19.253Z,2.80
2019-03-11T02:36:23.987Z,2.70
2019-03-11T02:41:28.730Z,2.60
2019-03-11T02:46:33.471Z,2.60
2019-03-11T02:51:37.904Z,2.60
2019-03-11T02:56:42.345Z,2.50
2019-03-11T03:01:57.528Z,2.60
2019-03-11T03:07:01.961Z,2.60
2019-03-11T03:12:06.707Z,2.70
2019-03-11T03:17:11.448Z,2.70
2019-03-11T03:22:15.883Z,2.70
2019-03-11T03:27:21.851Z,2.80
2019-03-11T03:32:26.311Z,2.90
2019-03-11T03:37:31.026Z,2.70
2019-03-11T03:42:35.510Z,2.80
2019-03-11T03:47:40.231Z,2.90
2019-03-11T03:52:44.943Z,2.90
2019-03-11T03:57:49.379Z,2.80
2019-03-11T04:02:53.814Z,2.40
2019-03-11T04:07:58.248Z,2.30
2019-03-11T04:13:02.782Z,2.20
2019-03-11T04:18:10.506Z,2.10
2019-03-11T04:23:15.237Z,2.00
2019-03-11T04:28:19.757Z,1.90
2019-03-11T04:33:24.413Z,1.70
2019-03-11T04:38:28.917Z,1.70
2019-03-11T04:43:33.591Z,1.70
2019-03-11T04:48:38.035Z,1.80
2019-03-11T04:53:42.438Z,1.80
2019-03-11T04:58:46.977Z,1.70
2019-03-11T05:03:51.410Z,1.80
2019-03-11T05:08:55.845Z,1.80
2019-03-11T05:14:00.505Z,1.80
2019-03-11T05:19:05.026Z,1.80
2019-03-11T05:24:09.682Z,1.70
2019-03-11T05:29:14.128Z,1.60
2019-03-11T05:34:18.700Z,1.60
2019-03-11T05:39:23.308Z,1.70
2019-03-11T05:44:27.831Z,1.60
2019-03-11T05:49:32.486Z,1.50
2019-03-11T05:54:36.903Z,1.60
2019-03-11T05:59:41.349Z,1.80
2019-03-11T06:04:45.774Z,1.90
2019-03-11T06:09:50.905Z,1.90
2019-03-11T06:14:55.335Z,2.00
2019-03-11T06:20:01.534Z,2.00
2019-03-11T06:25:07.489Z,2.00
2019-03-11T06:30:13.175Z,2.00
2019-03-11T06:35:17.682Z,2.10
2019-03-11T06:40:22.344Z,2.10
2019-03-11T06:45:26.778Z,2.20
2019-03-11T06:50:31.520Z,2.20
2019-03-11T06:55:35.966Z,2.30
2019-03-11T07:00:40.473Z,2.40
2019-03-11T07:07:53.224Z,2.40
2019-03-11T07:12:57.750Z,2.40
2019-03-11T07:18:02.420Z,2.50
2019-03-11T07:23:07.152Z,2.40
2019-03-11T07:28:11.586Z,2.50
2019-03-11T07:33:16.338Z,2.60
2019-03-11T07:38:21.072Z,2.60
2019-03-11T07:43:25.583Z,2.80
2019-03-11T07:48:30.247Z,2.90
2019-03-11T07:53:34.683Z,3.00
2019-03-11T07:58:39.116Z,3.10
2019-03-11T08:03:43.551Z,3.30
2019-03-11T08:08:47.992Z,3.30
2019-03-11T08:13:53.007Z,3.40
2019-03-11T08:18:57.470Z,3.50
2019-03-11T08:24:02.209Z,3.80
2019-03-11T08:29:06.971Z,4.00
2019-03-11T08:34:11.703Z,4.20
2019-03-11T08:39:16.436Z,4.30
2019-03-11T08:44:21.179Z,4.50
2019-03-11T08:49:25.930Z,4.50
2019-03-11T08:54:30.660Z,4.60
2019-03-11T08:59:35.112Z,4.80
2019-03-11T09:04:39.607Z,4.80
2019-03-11T09:09:44.285Z,4.70
2019-03-11T09:14:49.093Z,4.90
2019-03-11T09:19:53.766Z,4.80
2019-03-11T09:24:58.266Z,4.50
2019-03-11T09:30:02.733Z,4.50
2019-03-11T09:35:08.907Z,4.70
2019-03-11T09:40:16.409Z,4.90
2019-03-11T09:45:20.922Z,5.30
2019-03-11T09:50:25.892Z,5.60
2019-03-11T09:55:30.941Z,5.50
2019-03-11T10:00:35.994Z,5.40
2019-03-11T10:05:40.503Z,5.40
2019-03-11T10:10:45.178Z,5.30
2019-03-11T10:15:51.753Z,5.30
2019-03-11T10:20:56.493Z,5.20
2019-03-11T10:26:00.903Z,5.30
2019-03-11T10:31:05.682Z,5.40
2019-03-11T10:36:10.205Z,5.40
2019-03-11T10:41:14.845Z,5.40
2019-03-11T10:46:19.359Z,5.40
2019-03-11T10:51:23.796Z,5.30
2019-03-11T10:56:28.330Z,5.30
2019-03-11T11:01:32.912Z,5.70
2019-03-11T11:06:37.410Z,5.60
2019-03-11T11:11:42.067Z,5.30
2019-03-11T11:16:49.579Z,5.40
2019-03-11T11:21:54.100Z,5.30
2019-03-11T11:26:58.749Z,5.30
2019-03-11T11:32:03.159Z,5.40
2019-03-11T11:37:07.926Z,5.30
2019-03-11T11:42:12.364Z,5.20
2019-03-11T11:47:16.798Z,5.30
2019-03-11T11:52:21.537Z,5.20
2019-03-11T11:57:26.278Z,5.40
2019-03-11T12:02:31.020Z,5.60
2019-03-11T12:07:36.379Z,5.70
2019-03-11T12:12:41.120Z,5.90
2019-03-11T12:17:46.174Z,6.00
2019-03-11T12:22:50.909Z,6.40
2019-03-11T12:27:57.921Z,6.40
2019-03-11T12:33:01.909Z,6.50
2019-03-11T12:38:06.361Z,6.50
2019-03-11T12:43:11.105Z,6.70
2019-03-11T12:48:15.847Z,6.90
2019-03-11T12:53:20.302Z,7.10
2019-03-11T12:58:24.794Z,6.90
2019-03-11T13:03:29.473Z,6.90
2019-03-11T13:08:34.506Z,6.90
2019-03-11T13:13:39.022Z,7.00
2019-03-11T13:18:44.377Z,6.90
2019-03-11T13:23:49.044Z,7.10
2019-03-11T13:28:53.557Z,7.20
2019-03-11T13:33:58.215Z,7.10
2019-03-11T13:39:02.958Z,7.00
2019-03-11T13:44:09.007Z,7.00
2019-03-11T13:49:13.990Z,7.00
2019-03-11T13:54:18.514Z,7.10
2019-03-11T13:59:23.477Z,7.30
2019-03-11T14:04:27.896Z,7.20
2019-03-11T14:09:32.640Z,7.00
2019-03-11T14:14:37.378Z,6.90
2019-03-11T14:19:42.122Z,7.00
2019-03-11T14:24:46.531Z,6.90
2019-03-11T14:29:51.381Z,6.90
2019-03-11T14:34:56.038Z,6.80
2019-03-11T14:40:00.478Z,6.70
2019-03-11T14:45:08.605Z,6.80
2019-03-11T14:50:14.564Z,6.70
2019-03-11T14:55:19.286Z,6.60
2019-03-11T15:00:23.819Z,6.50
2019-03-11T15:05:28.482Z,6.30
2019-03-11T15:10:33.223Z,6.20
2019-03-11T15:15:37.659Z,6.20
2019-03-11T15:20:42.094Z,6.00
2019-03-11T15:25:46.846Z,5.90
2019-03-11T15:30:51.346Z,5.80
2019-03-11T15:35:56.010Z,5.70
2019-03-11T15:41:02.537Z,5.70
2019-03-11T15:46:07.343Z,5.50
2019-03-11T15:51:11.806Z,5.40
2019-03-11T15:56:16.513Z,5.30
2019-03-11T16:01:21.028Z,5.20
2019-03-11T16:06:25.563Z,5.10
2019-03-11T16:11:30.739Z,5.10
2019-03-11T16:16:35.253Z,4.90
2019-03-11T16:21:39.893Z,4.70
2019-03-11T16:26:46.808Z,4.50
2019-03-11T16:31:51.343Z,4.40
2019-03-11T16:36:55.990Z,4.30
2019-03-11T16:42:00.463Z,4.20
2019-03-11T16:47:04.935Z,4.10
2019-03-11T16:52:09.595Z,4.00
2019-03-11T16:57:15.134Z,3.80
2019-03-11T17:02:20.000Z,3.70
2019-03-11T17:07:24.744Z,3.60
2019-03-11T17:12:29.458Z,3.60
2019-03-11T17:17:33.999Z,3.50
2019-03-11T17:22:38.431Z,3.40
2019-03-11T17:27:43.094Z,3.50
2019-03-11T17:32:47.838Z,3.50
2019-03-11T17:37:52.359Z,3.40
2019-03-11T17:42:57.078Z,3.20
2019-03-11T17:48:01.846Z,3.20
2019-03-11T17:53:06.803Z,3.20
2019-03-11T17:58:11.852Z,3.00
2019-03-11T18:03:16.595Z,2.80
2019-03-11T18:08:21.029Z,2.70
2019-03-11T18:13:25.499Z,2.60
2019-03-11T18:18:33.458Z,2.50
2019-03-11T18:23:36.183Z,2.40
2019-03-11T18:28:40.694Z,2.30
2019-03-11T18:33:45.138Z,2.20
2019-03-11T18:38:49.814Z,2.30
2019-03-11T18:43:54.552Z,2.40
2019-03-11T18:48:59.076Z,2.60
2019-03-11T18:54:03.522Z,2.80
2019-03-11T18:59:08.460Z,2.90
2019-03-11T19:04:14.591Z,2.90
2019-03-11T19:09:19.253Z,3.00
2019-03-11T19:14:24.206Z,3.00
2019-03-11T19:19:28.949Z,3.00
2019-03-11T19:24:33.772Z,2.90
2019-03-11T19:29:38.460Z,2.80
2019-03-11T19:34:43.230Z,2.80
2019-03-11T19:39:48.006Z,2.90
2019-03-11T19:44:52.681Z,2.60
2019-03-11T19:49:57.375Z,2.50
2019-03-11T19:55:01.924Z,2.50
2019-03-11T20:00:10.003Z,2.40
2019-03-11T20:05:20.882Z,2.30
2019-03-11T20:10:25.584Z,2.20
2019-03-11T20:15:30.111Z,2.20
2019-03-11T20:20:34.800Z,2.20
2019-03-11T20:25:40.537Z,2.00
2019-03-11T20:30:48.179Z,1.90
2019-03-11T20:35:53.826Z,1.90
2019-03-11T20:40:58.668Z,1.90
2019-03-11T20:46:03.164Z,1.80
2019-03-11T20:51:08.483Z,1.70
2019-03-11T21:01:37.970Z,1.60
2019-03-11T21:06:42.518Z,1.50
2019-03-11T21:11:47.111Z,1.50
2019-03-11T21:16:52.505Z,1.40
2019-03-11T21:21:57.162Z,1.40
2019-03-11T21:27:01.610Z,1.40
2019-03-11T21:32:06.169Z,1.30
2019-03-11T21:37:10.885Z,1.20
2019-03-11T21:42:15.489Z,1.20
2019-03-11T21:47:20.226Z,1.20
2019-03-11T21:52:25.038Z,1.20
2019-03-11T21:57:29.817Z,1.20
2019-03-11T22:02:43.080Z,1.10
2019-03-11T22:07:48.744Z,1.00
2019-03-11T22:12:53.255Z,1.00
2019-03-11T22:17:58.226Z,1.00
2019-03-11T22:23:02.634Z,1.10
2019-03-11T22:28:07.384Z,1.10
2019-03-11T22:33:11.837Z,1.20
2019-03-11T22:38:16.578Z,1.20
2019-03-11T22:43:21.097Z,1.10
2019-03-11T22:48:25.490Z,1.10
2019-03-11T22:53:29.958Z,1.00
2019-03-11T22:58:34.628Z,1.10
2019-03-11T23:03:39.139Z,1.10
2019-03-11T23:08:43.800Z,1.10
2019-03-11T23:13:48.311Z,1.10
2019-03-11T23:18:52.694Z,1.00
2019-03-11T23:23:57.103Z,1.00
2019-03-11T23:29:01.845Z,1.00
2019-03-11T23:34:06.588Z,0.90
2019-03-11T23:39:11.331Z,0.90
2019-03-11T23:44:15.843Z,0.80
2019-03-11T23:49:20.506Z,0.90
2019-03-11T23:54:25.020Z,0.90
2019-03-11T23:59:29.683Z,0.90
